sensor_id;sensor_type;location;lat;lon;timestamp;P1;durP1;ratioP1;P2;durP2;ratioP2
49392;SDS011;35268;42.642;23.308;2022-08-11T00:02:28;14.43;;;4.13;;
49392;SDS011;35268;42.642;23.308;2022-08-11T00:04:56;7.82;;;4.80;;
49392;SDS011;35268;42.642;23.308;2022-08-11T00:07:28;6.40;;;4.20;;
49392;SDS011;35268;42.642;23.308;2022-08-11T00:09:53;5.30;;;4.35;;
49392;SDS011;35268;42.642;23.308;2022-08-11T00:12:20;9.48;;;4.20;;
49392;SDS011;35268;42.642;23.308;2022-08-11T00:14:47;5.85;;;4.28;;
49392;SDS011;35268;42.642;23.308;2022-08-11T00:17:20;6.90;;;4.40;;
49392;SDS011;35268;42.642;23.308;2022-08-11T00:19:52;9.32;;;3.85;;
49392;SDS011;35268;42.642;23.308;2022-08-11T00:22:30;7.18;;;4.00;;
49392;SDS011;35268;42.642;23.308;2022-08-11T00:24:57;5.25;;;4.03;;
49392;SDS011;35268;42.642;23.308;2022-08-11T00:27:33;6.93;;;4.82;;
49392;SDS011;35268;42.642;23.308;2022-08-11T00:29:59;6.68;;;4.60;;
49392;SDS011;35268;42.642;23.308;2022-08-11T00:32:26;7.50;;;4.72;;
49392;SDS011;35268;42.642;23.308;2022-08-11T00:34:52;8.32;;;4.13;;
49392;SDS011;35268;42.642;23.308;2022-08-11T00:37:19;11.73;;;4.68;;
49392;SDS011;35268;42.642;23.308;2022-08-11T00:39:47;11.02;;;3.90;;
49392;SDS011;35268;42.642;23.308;2022-08-11T00:45:41;6.32;;;4.20;;
49392;SDS011;35268;42.642;23.308;2022-08-11T00:48:28;7.78;;;4.07;;
49392;SDS011;35268;42.642;23.308;2022-08-11T00:51:22;5.88;;;4.30;;
49392;SDS011;35268;42.642;23.308;2022-08-11T00:59:15;7.53;;;4.30;;
49392;SDS011;35268;42.642;23.308;2022-08-11T01:01:54;6.25;;;4.13;;
49392;SDS011;35268;42.642;23.308;2022-08-11T01:41:25;7.20;;;4.18;;
49392;SDS011;35268;42.642;23.308;2022-08-11T01:55:32;9.75;;;4.80;;
49392;SDS011;35268;42.642;23.308;2022-08-11T02:00:50;7.90;;;5.10;;
49392;SDS011;35268;42.642;23.308;2022-08-11T02:03:27;10.02;;;4.80;;
49392;SDS011;35268;42.642;23.308;2022-08-11T02:15:13;7.47;;;4.07;;
49392;SDS011;35268;42.642;23.308;2022-08-11T02:20:47;7.05;;;4.97;;
49392;SDS011;35268;42.642;23.308;2022-08-11T02:28:59;8.95;;;4.68;;
49392;SDS011;35268;42.642;23.308;2022-08-11T02:31:57;5.68;;;4.15;;
49392;SDS011;35268;42.642;23.308;2022-08-11T02:40:35;7.72;;;5.03;;
49392;SDS011;35268;42.642;23.308;2022-08-11T02:43:31;5.93;;;4.60;;
49392;SDS011;35268;42.642;23.308;2022-08-11T02:46:23;5.85;;;4.63;;
49392;SDS011;35268;42.642;23.308;2022-08-11T02:52:04;7.43;;;4.63;;
49392;SDS011;35268;42.642;23.308;2022-08-11T02:54:44;10.63;;;5.65;;
49392;SDS011;35268;42.642;23.308;2022-08-11T02:57:29;9.50;;;4.90;;
49392;SDS011;35268;42.642;23.308;2022-08-11T03:00:10;6.40;;;4.72;;
49392;SDS011;35268;42.642;23.308;2022-08-11T03:14:10;7.28;;;4.63;;
49392;SDS011;35268;42.642;23.308;2022-08-11T03:17:27;7.88;;;4.13;;
49392;SDS011;35268;42.642;23.308;2022-08-11T03:25:50;5.97;;;4.28;;
49392;SDS011;35268;42.642;23.308;2022-08-11T03:28:41;6.03;;;4.20;;
49392;SDS011;35268;42.642;23.308;2022-08-11T03:33:50;6.20;;;4.10;;
49392;SDS011;35268;42.642;23.308;2022-08-11T03:36:35;5.85;;;3.83;;
49392;SDS011;35268;42.642;23.308;2022-08-11T03:50:31;7.25;;;3.92;;
49392;SDS011;35268;42.642;23.308;2022-08-11T04:34:47;7.30;;;4.43;;
49392;SDS011;35268;42.642;23.308;2022-08-11T05:01:54;11.18;;;6.05;;
49392;SDS011;35268;42.642;23.308;2022-08-11T05:04:37;9.52;;;6.53;;
49392;SDS011;35268;42.642;23.308;2022-08-11T05:10:22;17.40;;;6.93;;
49392;SDS011;35268;42.642;23.308;2022-08-11T05:13:07;13.95;;;7.25;;
49392;SDS011;35268;42.642;23.308;2022-08-11T05:15:55;10.75;;;6.45;;
49392;SDS011;35268;42.642;23.308;2022-08-11T05:18:53;10.88;;;6.47;;
49392;SDS011;35268;42.642;23.308;2022-08-11T05:21:39;10.52;;;6.43;;
49392;SDS011;35268;42.642;23.308;2022-08-11T05:24:29;8.50;;;6.00;;
49392;SDS011;35268;42.642;23.308;2022-08-11T05:27:25;19.63;;;6.78;;
49392;SDS011;35268;42.642;23.308;2022-08-11T05:30:18;12.82;;;5.72;;
49392;SDS011;35268;42.642;23.308;2022-08-11T05:33:09;15.55;;;6.13;;
49392;SDS011;35268;42.642;23.308;2022-08-11T05:36:04;9.45;;;5.78;;
49392;SDS011;35268;42.642;23.308;2022-08-11T05:38:36;16.33;;;5.28;;
49392;SDS011;35268;42.642;23.308;2022-08-11T05:41:22;14.15;;;5.75;;
49392;SDS011;35268;42.642;23.308;2022-08-11T05:44:08;9.88;;;6.35;;
49392;SDS011;35268;42.642;23.308;2022-08-11T05:46:53;10.30;;;6.15;;
49392;SDS011;35268;42.642;23.308;2022-08-11T05:49:37;20.08;;;6.50;;
49392;SDS011;35268;42.642;23.308;2022-08-11T05:52:28;13.07;;;7.30;;
49392;SDS011;35268;42.642;23.308;2022-08-11T05:55:13;10.47;;;6.77;;
49392;SDS011;35268;42.642;23.308;2022-08-11T05:58:00;12.35;;;6.82;;
49392;SDS011;35268;42.642;23.308;2022-08-11T06:00:28;11.70;;;7.60;;
49392;SDS011;35268;42.642;23.308;2022-08-11T06:02:57;10.43;;;6.85;;
49392;SDS011;35268;42.642;23.308;2022-08-11T06:05:34;15.40;;;6.65;;
49392;SDS011;35268;42.642;23.308;2022-08-11T06:08:02;13.40;;;6.30;;
49392;SDS011;35268;42.642;23.308;2022-08-11T06:10:33;10.65;;;5.68;;
49392;SDS011;35268;42.642;23.308;2022-08-11T06:13:02;12.85;;;6.47;;
49392;SDS011;35268;42.642;23.308;2022-08-11T06:15:30;9.93;;;5.80;;
49392;SDS011;35268;42.642;23.308;2022-08-11T06:17:58;8.45;;;5.65;;
49392;SDS011;35268;42.642;23.308;2022-08-11T06:20:25;16.50;;;6.10;;
49392;SDS011;35268;42.642;23.308;2022-08-11T06:22:57;15.43;;;5.33;;
49392;SDS011;35268;42.642;23.308;2022-08-11T06:25:34;7.93;;;5.63;;
49392;SDS011;35268;42.642;23.308;2022-08-11T06:28:04;14.50;;;5.30;;
49392;SDS011;35268;42.642;23.308;2022-08-11T06:30:32;12.23;;;5.78;;
49392;SDS011;35268;42.642;23.308;2022-08-11T06:33:07;8.82;;;5.53;;
49392;SDS011;35268;42.642;23.308;2022-08-11T06:35:37;9.98;;;4.55;;
49392;SDS011;35268;42.642;23.308;2022-08-11T06:41:02;9.45;;;4.70;;
49392;SDS011;35268;42.642;23.308;2022-08-11T06:44:13;14.32;;;5.43;;
49392;SDS011;35268;42.642;23.308;2022-08-11T06:46:45;5.88;;;4.05;;
49392;SDS011;35268;42.642;23.308;2022-08-11T06:49:15;4.87;;;3.33;;
49392;SDS011;35268;42.642;23.308;2022-08-11T06:52:01;10.85;;;5.03;;
49392;SDS011;35268;42.642;23.308;2022-08-11T06:54:29;8.90;;;5.00;;
49392;SDS011;35268;42.642;23.308;2022-08-11T06:56:58;7.65;;;3.97;;
49392;SDS011;35268;42.642;23.308;2022-08-11T06:59:43;5.05;;;3.10;;
49392;SDS011;35268;42.642;23.308;2022-08-11T07:02:42;6.15;;;3.50;;
49392;SDS011;35268;42.642;23.308;2022-08-11T07:14:02;5.55;;;3.20;;
49392;SDS011;35268;42.642;23.308;2022-08-11T07:16:48;7.65;;;3.25;;
49392;SDS011;35268;42.642;23.308;2022-08-11T07:19:23;7.97;;;3.28;;
49392;SDS011;35268;42.642;23.308;2022-08-11T07:22:10;9.55;;;3.83;;
49392;SDS011;35268;42.642;23.308;2022-08-11T07:25:12;4.65;;;3.33;;
49392;SDS011;35268;42.642;23.308;2022-08-11T07:28:06;4.22;;;3.13;;
49392;SDS011;35268;42.642;23.308;2022-08-11T07:30:57;6.68;;;4.32;;
49392;SDS011;35268;42.642;23.308;2022-08-11T07:33:31;7.40;;;3.70;;
49392;SDS011;35268;42.642;23.308;2022-08-11T07:36:10;5.55;;;3.60;;
49392;SDS011;35268;42.642;23.308;2022-08-11T07:38:41;6.05;;;3.83;;
49392;SDS011;35268;42.642;23.308;2022-08-11T07:41:13;4.95;;;3.25;;
49392;SDS011;35268;42.642;23.308;2022-08-11T07:43:40;6.88;;;3.25;;
49392;SDS011;35268;42.642;23.308;2022-08-11T07:46:07;4.90;;;3.75;;
49392;SDS011;35268;42.642;23.308;2022-08-11T07:48:53;5.90;;;3.50;;
49392;SDS011;35268;42.642;23.308;2022-08-11T07:51:39;8.60;;;3.60;;
49392;SDS011;35268;42.642;23.308;2022-08-11T07:54:26;8.30;;;3.42;;
49392;SDS011;35268;42.642;23.308;2022-08-11T07:56:52;6.03;;;3.40;;
49392;SDS011;35268;42.642;23.308;2022-08-11T07:59:19;4.10;;;2.85;;
49392;SDS011;35268;42.642;23.308;2022-08-11T08:02:05;9.07;;;3.35;;
49392;SDS011;35268;42.642;23.308;2022-08-11T08:04:51;6.63;;;3.95;;
49392;SDS011;35268;42.642;23.308;2022-08-11T08:07:36;5.55;;;3.53;;
49392;SDS011;35268;42.642;23.308;2022-08-11T08:10:21;6.05;;;3.75;;
49392;SDS011;35268;42.642;23.308;2022-08-11T08:13:05;7.47;;;3.67;;
49392;SDS011;35268;42.642;23.308;2022-08-11T08:15:50;9.68;;;3.40;;
49392;SDS011;35268;42.642;23.308;2022-08-11T08:18:36;6.90;;;3.75;;
49392;SDS011;35268;42.642;23.308;2022-08-11T08:21:03;7.53;;;3.90;;
49392;SDS011;35268;42.642;23.308;2022-08-11T08:23:43;6.88;;;3.20;;
49392;SDS011;35268;42.642;23.308;2022-08-11T08:26:14;5.07;;;2.92;;
49392;SDS011;35268;42.642;23.308;2022-08-11T08:29:00;12.55;;;4.03;;
49392;SDS011;35268;42.642;23.308;2022-08-11T08:32:00;8.57;;;3.58;;
49392;SDS011;35268;42.642;23.308;2022-08-11T08:34:26;5.43;;;3.50;;
49392;SDS011;35268;42.642;23.308;2022-08-11T08:36:52;4.47;;;3.35;;
49392;SDS011;35268;42.642;23.308;2022-08-11T08:39:18;5.55;;;3.45;;
49392;SDS011;35268;42.642;23.308;2022-08-11T08:41:45;12.00;;;3.58;;
49392;SDS011;35268;42.642;23.308;2022-08-11T08:44:16;5.15;;;3.47;;
49392;SDS011;35268;42.642;23.308;2022-08-11T08:46:45;3.78;;;2.70;;
49392;SDS011;35268;42.642;23.308;2022-08-11T08:49:15;6.35;;;3.17;;
49392;SDS011;35268;42.642;23.308;2022-08-11T08:51:43;7.13;;;3.40;;
49392;SDS011;35268;42.642;23.308;2022-08-11T08:54:14;6.28;;;3.03;;
49392;SDS011;35268;42.642;23.308;2022-08-11T08:56:43;6.50;;;3.50;;
49392;SDS011;35268;42.642;23.308;2022-08-11T08:59:11;4.93;;;2.47;;
49392;SDS011;35268;42.642;23.308;2022-08-11T09:01:42;5.60;;;3.55;;
49392;SDS011;35268;42.642;23.308;2022-08-11T09:04:12;4.90;;;3.25;;
49392;SDS011;35268;42.642;23.308;2022-08-11T09:06:39;5.82;;;3.15;;
49392;SDS011;35268;42.642;23.308;2022-08-11T09:09:07;5.78;;;2.97;;
49392;SDS011;35268;42.642;23.308;2022-08-11T09:11:33;4.88;;;3.15;;
49392;SDS011;35268;42.642;23.308;2022-08-11T09:14:20;4.30;;;3.08;;
49392;SDS011;35268;42.642;23.308;2022-08-11T09:17:10;8.68;;;3.58;;
49392;SDS011;35268;42.642;23.308;2022-08-11T09:19:37;5.63;;;3.13;;
49392;SDS011;35268;42.642;23.308;2022-08-11T09:22:03;6.40;;;2.95;;
49392;SDS011;35268;42.642;23.308;2022-08-11T09:24:58;3.78;;;2.88;;
49392;SDS011;35268;42.642;23.308;2022-08-11T09:27:42;8.07;;;3.17;;
49392;SDS011;35268;42.642;23.308;2022-08-11T09:30:08;9.35;;;3.55;;
49392;SDS011;35268;42.642;23.308;2022-08-11T09:32:36;7.85;;;3.65;;
49392;SDS011;35268;42.642;23.308;2022-08-11T09:35:03;5.43;;;3.33;;
49392;SDS011;35268;42.642;23.308;2022-08-11T09:37:29;6.30;;;2.92;;
49392;SDS011;35268;42.642;23.308;2022-08-11T09:40:14;7.43;;;2.58;;
49392;SDS011;35268;42.642;23.308;2022-08-11T09:42:56;5.25;;;3.15;;
49392;SDS011;35268;42.642;23.308;2022-08-11T09:45:43;6.05;;;3.08;;
49392;SDS011;35268;42.642;23.308;2022-08-11T09:48:15;5.38;;;2.95;;
49392;SDS011;35268;42.642;23.308;2022-08-11T09:50:47;3.88;;;2.63;;
49392;SDS011;35268;42.642;23.308;2022-08-11T09:53:16;6.93;;;3.10;;
49392;SDS011;35268;42.642;23.308;2022-08-11T09:55:43;5.95;;;3.50;;
49392;SDS011;35268;42.642;23.308;2022-08-11T09:58:11;4.18;;;2.58;;
49392;SDS011;35268;42.642;23.308;2022-08-11T10:00:37;5.75;;;2.90;;
49392;SDS011;35268;42.642;23.308;2022-08-11T10:03:11;19.08;;;3.58;;
49392;SDS011;35268;42.642;23.308;2022-08-11T10:05:47;9.13;;;3.30;;
49392;SDS011;35268;42.642;23.308;2022-08-11T10:08:33;6.90;;;3.42;;
49392;SDS011;35268;42.642;23.308;2022-08-11T10:11:02;5.20;;;2.85;;
49392;SDS011;35268;42.642;23.308;2022-08-11T10:13:33;6.30;;;3.17;;
49392;SDS011;35268;42.642;23.308;2022-08-11T10:16:25;3.95;;;2.83;;
49392;SDS011;35268;42.642;23.308;2022-08-11T10:18:53;4.50;;;3.20;;
49392;SDS011;35268;42.642;23.308;2022-08-11T10:21:24;6.05;;;3.45;;
49392;SDS011;35268;42.642;23.308;2022-08-11T10:23:54;7.05;;;4.15;;
49392;SDS011;35268;42.642;23.308;2022-08-11T10:26:41;7.78;;;2.63;;
49392;SDS011;35268;42.642;23.308;2022-08-11T10:29:25;6.15;;;3.17;;
49392;SDS011;35268;42.642;23.308;2022-08-11T10:32:16;5.07;;;3.40;;
49392;SDS011;35268;42.642;23.308;2022-08-11T10:35:04;6.00;;;3.60;;
49392;SDS011;35268;42.642;23.308;2022-08-11T10:37:33;5.22;;;3.08;;
49392;SDS011;35268;42.642;23.308;2022-08-11T10:40:01;11.57;;;3.15;;
49392;SDS011;35268;42.642;23.308;2022-08-11T10:42:29;4.97;;;3.10;;
49392;SDS011;35268;42.642;23.308;2022-08-11T10:45:14;12.95;;;4.57;;
49392;SDS011;35268;42.642;23.308;2022-08-11T10:47:59;12.82;;;4.22;;
49392;SDS011;35268;42.642;23.308;2022-08-11T10:50:26;5.38;;;3.22;;
49392;SDS011;35268;42.642;23.308;2022-08-11T10:53:27;8.17;;;3.90;;
49392;SDS011;35268;42.642;23.308;2022-08-11T10:56:12;7.90;;;3.40;;
49392;SDS011;35268;42.642;23.308;2022-08-11T10:58:56;9.23;;;3.65;;
49392;SDS011;35268;42.642;23.308;2022-08-11T11:01:27;5.30;;;3.40;;
49392;SDS011;35268;42.642;23.308;2022-08-11T11:04:00;16.13;;;3.40;;
49392;SDS011;35268;42.642;23.308;2022-08-11T11:06:36;6.03;;;3.13;;
49392;SDS011;35268;42.642;23.308;2022-08-11T11:09:18;6.63;;;3.42;;
49392;SDS011;35268;42.642;23.308;2022-08-11T11:11:55;5.45;;;3.53;;
49392;SDS011;35268;42.642;23.308;2022-08-11T11:14:42;7.38;;;3.08;;
49392;SDS011;35268;42.642;23.308;2022-08-11T11:17:46;5.80;;;3.53;;
49392;SDS011;35268;42.642;23.308;2022-08-11T11:20:22;7.28;;;3.03;;
49392;SDS011;35268;42.642;23.308;2022-08-11T11:22:52;13.25;;;5.03;;
49392;SDS011;35268;42.642;23.308;2022-08-11T11:28:25;6.72;;;2.88;;
49392;SDS011;35268;42.642;23.308;2022-08-11T11:39:22;10.10;;;3.08;;
49392;SDS011;35268;42.642;23.308;2022-08-11T11:41:50;5.07;;;3.10;;
49392;SDS011;35268;42.642;23.308;2022-08-11T11:44:19;10.57;;;2.70;;
49392;SDS011;35268;42.642;23.308;2022-08-11T11:46:47;5.35;;;2.92;;
49392;SDS011;35268;42.642;23.308;2022-08-11T11:49:13;5.95;;;2.55;;
49392;SDS011;35268;42.642;23.308;2022-08-11T11:51:43;5.20;;;3.03;;
49392;SDS011;35268;42.642;23.308;2022-08-11T11:54:12;7.97;;;3.15;;
49392;SDS011;35268;42.642;23.308;2022-08-11T11:56:39;6.10;;;3.20;;
49392;SDS011;35268;42.642;23.308;2022-08-11T11:59:06;10.80;;;3.42;;
49392;SDS011;35268;42.642;23.308;2022-08-11T12:01:51;7.90;;;3.42;;
49392;SDS011;35268;42.642;23.308;2022-08-11T12:04:18;6.00;;;3.42;;
49392;SDS011;35268;42.642;23.308;2022-08-11T12:06:45;4.68;;;2.70;;
49392;SDS011;35268;42.642;23.308;2022-08-11T12:09:11;5.80;;;2.55;;
49392;SDS011;35268;42.642;23.308;2022-08-11T12:11:42;11.70;;;3.25;;
49392;SDS011;35268;42.642;23.308;2022-08-11T12:14:27;9.40;;;3.10;;
49392;SDS011;35268;42.642;23.308;2022-08-11T12:16:53;17.58;;;5.20;;
49392;SDS011;35268;42.642;23.308;2022-08-11T12:19:24;7.05;;;3.30;;
49392;SDS011;35268;42.642;23.308;2022-08-11T12:21:53;6.22;;;3.33;;
49392;SDS011;35268;42.642;23.308;2022-08-11T12:24:38;3.60;;;2.78;;
49392;SDS011;35268;42.642;23.308;2022-08-11T12:27:23;6.32;;;2.97;;
49392;SDS011;35268;42.642;23.308;2022-08-11T12:29:54;5.72;;;3.63;;
49392;SDS011;35268;42.642;23.308;2022-08-11T12:32:22;5.60;;;3.10;;
49392;SDS011;35268;42.642;23.308;2022-08-11T12:34:51;6.85;;;3.88;;
49392;SDS011;35268;42.642;23.308;2022-08-11T12:37:19;4.70;;;2.72;;
49392;SDS011;35268;42.642;23.308;2022-08-11T12:39:47;6.32;;;2.92;;
49392;SDS011;35268;42.642;23.308;2022-08-11T12:42:33;5.57;;;3.30;;
49392;SDS011;35268;42.642;23.308;2022-08-11T12:45:18;5.97;;;3.55;;
49392;SDS011;35268;42.642;23.308;2022-08-11T12:50:49;7.82;;;2.95;;
49392;SDS011;35268;42.642;23.308;2022-08-11T12:53:35;15.63;;;3.45;;
49392;SDS011;35268;42.642;23.308;2022-08-11T12:56:07;4.63;;;2.85;;
49392;SDS011;35268;42.642;23.308;2022-08-11T12:58:52;9.52;;;2.90;;
49392;SDS011;35268;42.642;23.308;2022-08-11T13:01:39;7.80;;;2.97;;
49392;SDS011;35268;42.642;23.308;2022-08-11T13:04:23;7.93;;;2.78;;
49392;SDS011;35268;42.642;23.308;2022-08-11T13:07:09;14.50;;;3.60;;
49392;SDS011;35268;42.642;23.308;2022-08-11T13:09:36;4.43;;;3.22;;
49392;SDS011;35268;42.642;23.308;2022-08-11T13:12:02;5.45;;;3.00;;
49392;SDS011;35268;42.642;23.308;2022-08-11T13:14:46;5.45;;;2.70;;
49392;SDS011;35268;42.642;23.308;2022-08-11T13:17:12;5.30;;;2.90;;
49392;SDS011;35268;42.642;23.308;2022-08-11T13:19:47;7.85;;;2.80;;
49392;SDS011;35268;42.642;23.308;2022-08-11T13:22:16;8.60;;;2.25;;
49392;SDS011;35268;42.642;23.308;2022-08-11T13:24:43;5.72;;;2.92;;
49392;SDS011;35268;42.642;23.308;2022-08-11T13:27:10;3.58;;;2.60;;
49392;SDS011;35268;42.642;23.308;2022-08-11T13:29:40;3.90;;;2.53;;
49392;SDS011;35268;42.642;23.308;2022-08-11T13:32:07;5.15;;;2.58;;
49392;SDS011;35268;42.642;23.308;2022-08-11T13:34:33;5.22;;;2.55;;
49392;SDS011;35268;42.642;23.308;2022-08-11T13:37:05;3.67;;;2.58;;
49392;SDS011;35268;42.642;23.308;2022-08-11T13:39:33;8.57;;;2.30;;
49392;SDS011;35268;42.642;23.308;2022-08-11T13:42:01;5.03;;;2.42;;
49392;SDS011;35268;42.642;23.308;2022-08-11T13:44:29;5.38;;;2.60;;
49392;SDS011;35268;42.642;23.308;2022-08-11T13:47:01;9.60;;;2.60;;
49392;SDS011;35268;42.642;23.308;2022-08-11T13:49:32;4.57;;;2.30;;
49392;SDS011;35268;42.642;23.308;2022-08-11T13:54:29;7.50;;;2.67;;
49392;SDS011;35268;42.642;23.308;2022-08-11T13:59:28;12.13;;;2.78;;
49392;SDS011;35268;42.642;23.308;2022-08-11T14:01:56;4.80;;;2.55;;
49392;SDS011;35268;42.642;23.308;2022-08-11T14:04:33;6.10;;;2.30;;
49392;SDS011;35268;42.642;23.308;2022-08-11T14:07:04;4.55;;;2.40;;
49392;SDS011;35268;42.642;23.308;2022-08-11T14:09:33;4.65;;;2.40;;
49392;SDS011;35268;42.642;23.308;2022-08-11T14:12:02;3.08;;;2.15;;
49392;SDS011;35268;42.642;23.308;2022-08-11T14:15:10;3.53;;;2.10;;
49392;SDS011;35268;42.642;23.308;2022-08-11T14:17:44;9.00;;;2.00;;
49392;SDS011;35268;42.642;23.308;2022-08-11T14:20:16;3.65;;;2.03;;
49392;SDS011;35268;42.642;23.308;2022-08-11T14:22:44;4.40;;;2.05;;
49392;SDS011;35268;42.642;23.308;2022-08-11T14:25:14;5.65;;;1.98;;
49392;SDS011;35268;42.642;23.308;2022-08-11T14:27:42;4.57;;;2.28;;
49392;SDS011;35268;42.642;23.308;2022-08-11T14:30:08;4.13;;;1.98;;
49392;SDS011;35268;42.642;23.308;2022-08-11T14:32:54;3.42;;;1.92;;
49392;SDS011;35268;42.642;23.308;2022-08-11T14:35:21;4.57;;;1.80;;
49392;SDS011;35268;42.642;23.308;2022-08-11T14:37:47;3.72;;;2.08;;
49392;SDS011;35268;42.642;23.308;2022-08-11T14:40:13;3.45;;;2.10;;
49392;SDS011;35268;42.642;23.308;2022-08-11T14:42:58;3.45;;;1.98;;
49392;SDS011;35268;42.642;23.308;2022-08-11T14:45:43;3.10;;;1.83;;
49392;SDS011;35268;42.642;23.308;2022-08-11T14:48:28;3.88;;;1.73;;
49392;SDS011;35268;42.642;23.308;2022-08-11T14:50:54;3.45;;;1.80;;
49392;SDS011;35268;42.642;23.308;2022-08-11T14:53:20;5.70;;;2.72;;
49392;SDS011;35268;42.642;23.308;2022-08-11T14:55:47;5.20;;;1.98;;
49392;SDS011;35268;42.642;23.308;2022-08-11T14:58:31;3.08;;;1.92;;
49392;SDS011;35268;42.642;23.308;2022-08-11T15:00:59;9.13;;;2.95;;
49392;SDS011;35268;42.642;23.308;2022-08-11T15:03:26;2.75;;;1.90;;
49392;SDS011;35268;42.642;23.308;2022-08-11T15:05:54;2.90;;;1.92;;
49392;SDS011;35268;42.642;23.308;2022-08-11T15:08:22;7.32;;;1.92;;
49392;SDS011;35268;42.642;23.308;2022-08-11T15:11:09;4.85;;;2.17;;
49392;SDS011;35268;42.642;23.308;2022-08-11T15:13:55;4.53;;;2.08;;
49392;SDS011;35268;42.642;23.308;2022-08-11T15:16:24;4.43;;;2.05;;
49392;SDS011;35268;42.642;23.308;2022-08-11T15:19:09;4.28;;;2.55;;
49392;SDS011;35268;42.642;23.308;2022-08-11T15:21:36;2.80;;;2.22;;
49392;SDS011;35268;42.642;23.308;2022-08-11T15:24:20;8.05;;;2.33;;
49392;SDS011;35268;42.642;23.308;2022-08-11T15:26:48;3.78;;;2.20;;
49392;SDS011;35268;42.642;23.308;2022-08-11T15:29:35;3.80;;;2.15;;
49392;SDS011;35268;42.642;23.308;2022-08-11T15:32:21;3.95;;;2.20;;
49392;SDS011;35268;42.642;23.308;2022-08-11T15:35:07;5.13;;;2.75;;
49392;SDS011;35268;42.642;23.308;2022-08-11T15:37:54;4.28;;;2.55;;
49392;SDS011;35268;42.642;23.308;2022-08-11T15:46:09;2.90;;;1.92;;
49392;SDS011;35268;42.642;23.308;2022-08-11T15:49:00;4.07;;;2.63;;
49392;SDS011;35268;42.642;23.308;2022-08-11T15:51:29;4.78;;;2.10;;
49392;SDS011;35268;42.642;23.308;2022-08-11T15:54:02;5.03;;;2.35;;
49392;SDS011;35268;42.642;23.308;2022-08-11T15:56:32;4.82;;;2.65;;
49392;SDS011;35268;42.642;23.308;2022-08-11T15:59:01;5.38;;;2.78;;
49392;SDS011;35268;42.642;23.308;2022-08-11T16:01:48;3.72;;;2.33;;
49392;SDS011;35268;42.642;23.308;2022-08-11T16:04:35;10.00;;;2.60;;
49392;SDS011;35268;42.642;23.308;2022-08-11T16:07:10;4.75;;;2.63;;
49392;SDS011;35268;42.642;23.308;2022-08-11T16:09:46;3.60;;;2.10;;
49392;SDS011;35268;42.642;23.308;2022-08-11T16:12:19;6.85;;;2.50;;
49392;SDS011;35268;42.642;23.308;2022-08-11T16:14:48;4.57;;;2.60;;
49392;SDS011;35268;42.642;23.308;2022-08-11T16:17:39;4.43;;;2.47;;
49392;SDS011;35268;42.642;23.308;2022-08-11T16:20:08;5.97;;;2.50;;
49392;SDS011;35268;42.642;23.308;2022-08-11T16:22:35;8.98;;;3.30;;
49392;SDS011;35268;42.642;23.308;2022-08-11T16:25:11;4.28;;;2.42;;
49392;SDS011;35268;42.642;23.308;2022-08-11T16:27:44;3.75;;;2.40;;
49392;SDS011;35268;42.642;23.308;2022-08-11T16:30:12;7.28;;;2.65;;
49392;SDS011;35268;42.642;23.308;2022-08-11T16:32:39;5.88;;;2.35;;
49392;SDS011;35268;42.642;23.308;2022-08-11T16:35:14;7.20;;;2.90;;
49392;SDS011;35268;42.642;23.308;2022-08-11T16:38:00;4.55;;;2.53;;
49392;SDS011;35268;42.642;23.308;2022-08-11T16:40:46;7.53;;;2.13;;
49392;SDS011;35268;42.642;23.308;2022-08-11T16:43:16;5.10;;;2.88;;
49392;SDS011;35268;42.642;23.308;2022-08-11T16:46:03;5.30;;;2.42;;
49392;SDS011;35268;42.642;23.308;2022-08-11T16:48:49;5.43;;;2.53;;
49392;SDS011;35268;42.642;23.308;2022-08-11T16:51:19;5.22;;;2.03;;
49392;SDS011;35268;42.642;23.308;2022-08-11T16:53:47;10.18;;;2.80;;
49392;SDS011;35268;42.642;23.308;2022-08-11T16:56:21;4.20;;;2.17;;
49392;SDS011;35268;42.642;23.308;2022-08-11T16:58:53;5.88;;;2.90;;
49392;SDS011;35268;42.642;23.308;2022-08-11T17:01:39;4.57;;;2.63;;
49392;SDS011;35268;42.642;23.308;2022-08-11T17:04:13;6.53;;;2.65;;
49392;SDS011;35268;42.642;23.308;2022-08-11T17:07:05;3.13;;;2.33;;
49392;SDS011;35268;42.642;23.308;2022-08-11T17:09:49;9.55;;;2.13;;
49392;SDS011;35268;42.642;23.308;2022-08-11T17:12:37;7.65;;;2.55;;
49392;SDS011;35268;42.642;23.308;2022-08-11T17:15:24;7.63;;;2.30;;
49392;SDS011;35268;42.642;23.308;2022-08-11T17:18:10;4.53;;;2.65;;
49392;SDS011;35268;42.642;23.308;2022-08-11T17:20:58;7.93;;;2.63;;
49392;SDS011;35268;42.642;23.308;2022-08-11T17:23:26;8.40;;;2.47;;
49392;SDS011;35268;42.642;23.308;2022-08-11T17:28:50;6.65;;;2.72;;
49392;SDS011;35268;42.642;23.308;2022-08-11T17:31:20;8.68;;;3.17;;
49392;SDS011;35268;42.642;23.308;2022-08-11T17:34:16;7.90;;;2.85;;
49392;SDS011;35268;42.642;23.308;2022-08-11T17:37:00;4.35;;;2.55;;
49392;SDS011;35268;42.642;23.308;2022-08-11T17:39:28;3.65;;;2.65;;
49392;SDS011;35268;42.642;23.308;2022-08-11T17:41:55;6.95;;;2.78;;
49392;SDS011;35268;42.642;23.308;2022-08-11T17:44:40;9.98;;;2.75;;
49392;SDS011;35268;42.642;23.308;2022-08-11T17:47:26;3.58;;;2.45;;
49392;SDS011;35268;42.642;23.308;2022-08-11T17:50:12;4.80;;;2.67;;
49392;SDS011;35268;42.642;23.308;2022-08-11T17:52:38;5.88;;;2.78;;
49392;SDS011;35268;42.642;23.308;2022-08-11T17:55:24;6.57;;;2.95;;
49392;SDS011;35268;42.642;23.308;2022-08-11T17:58:17;5.50;;;2.67;;
49392;SDS011;35268;42.642;23.308;2022-08-11T18:01:03;5.85;;;2.30;;
49392;SDS011;35268;42.642;23.308;2022-08-11T18:03:30;7.10;;;2.92;;
49392;SDS011;35268;42.642;23.308;2022-08-11T18:06:00;7.70;;;4.10;;
49392;SDS011;35268;42.642;23.308;2022-08-11T18:08:28;5.97;;;2.85;;
49392;SDS011;35268;42.642;23.308;2022-08-11T18:11:14;8.18;;;3.17;;
49392;SDS011;35268;42.642;23.308;2022-08-11T18:14:01;5.55;;;2.95;;
49392;SDS011;35268;42.642;23.308;2022-08-11T18:16:48;8.93;;;4.55;;
49392;SDS011;35268;42.642;23.308;2022-08-11T18:19:33;9.00;;;3.88;;
49392;SDS011;35268;42.642;23.308;2022-08-11T18:22:28;5.28;;;3.40;;
49392;SDS011;35268;42.642;23.308;2022-08-11T18:25:19;8.25;;;3.10;;
49392;SDS011;35268;42.642;23.308;2022-08-11T18:28:05;5.45;;;3.17;;
49392;SDS011;35268;42.642;23.308;2022-08-11T18:30:52;10.13;;;2.90;;
49392;SDS011;35268;42.642;23.308;2022-08-11T18:33:43;5.88;;;3.55;;
49392;SDS011;35268;42.642;23.308;2022-08-11T18:36:34;5.93;;;3.70;;
49392;SDS011;35268;42.642;23.308;2022-08-11T18:39:21;6.90;;;3.55;;
49392;SDS011;35268;42.642;23.308;2022-08-11T18:42:08;5.13;;;3.03;;
49392;SDS011;35268;42.642;23.308;2022-08-11T18:45:07;5.88;;;3.33;;
49392;SDS011;35268;42.642;23.308;2022-08-11T18:47:55;8.85;;;3.28;;
49392;SDS011;35268;42.642;23.308;2022-08-11T18:50:44;6.70;;;3.28;;
49392;SDS011;35268;42.642;23.308;2022-08-11T18:53:29;5.93;;;3.25;;
49392;SDS011;35268;42.642;23.308;2022-08-11T18:56:16;4.90;;;3.10;;
49392;SDS011;35268;42.642;23.308;2022-08-11T18:59:02;8.20;;;2.80;;
49392;SDS011;35268;42.642;23.308;2022-08-11T19:01:49;5.50;;;2.70;;
49392;SDS011;35268;42.642;23.308;2022-08-11T19:04:36;4.72;;;2.72;;
49392;SDS011;35268;42.642;23.308;2022-08-11T19:07:21;6.88;;;2.58;;
49392;SDS011;35268;42.642;23.308;2022-08-11T19:10:07;7.60;;;2.65;;
49392;SDS011;35268;42.642;23.308;2022-08-11T19:12:52;5.85;;;2.40;;
49392;SDS011;35268;42.642;23.308;2022-08-11T19:15:38;5.72;;;2.67;;
49392;SDS011;35268;42.642;23.308;2022-08-11T19:18:23;6.38;;;2.95;;
49392;SDS011;35268;42.642;23.308;2022-08-11T19:21:09;4.07;;;2.55;;